createdAt,value
2023-01-10T00:01:09.495Z,6.50
2023-01-10T00:03:37.992Z,6.40
2023-01-10T00:06:06.567Z,6.40
2023-01-10T00:08:34.931Z,6.40
2023-01-10T00:11:24.011Z,6.30
2023-01-10T00:13:56.271Z,6.30
2023-01-10T00:16:26.127Z,6.30
2023-01-10T00:18:54.770Z,6.30
2023-01-10T00:21:23.171Z,6.30
2023-01-10T00:23:51.721Z,6.30
2023-01-10T00:26:20.087Z,6.30
2023-01-10T00:28:48.572Z,6.20
2023-01-10T00:31:17.073Z,6.20
2023-01-10T00:33:46.942Z,6.20
2023-01-10T00:36:15.371Z,6.10
2023-01-10T00:38:43.861Z,6.10
2023-01-10T00:41:26.081Z,6.10
2023-01-10T00:44:00.441Z,6.10
2023-01-10T00:46:29.067Z,6.10
2023-01-10T00:48:58.932Z,6.10
2023-01-10T00:51:27.490Z,6.10
2023-01-10T00:53:55.939Z,6.20
2023-01-10T00:56:24.320Z,6.20
2023-01-10T00:58:52.841Z,6.20
2023-01-10T01:01:24.272Z,6.30
2023-01-10T01:03:52.861Z,6.30
2023-01-10T01:06:22.805Z,6.40
2023-01-10T01:08:51.261Z,6.40
2023-01-10T01:11:19.711Z,6.50
2023-01-10T01:13:48.167Z,6.50
2023-01-10T01:16:16.676Z,6.50
2023-01-10T01:18:45.222Z,6.50
2023-01-10T01:21:13.660Z,6.50
2023-01-10T01:23:52.392Z,6.50
2023-01-10T01:26:20.820Z,6.50
2023-01-10T01:28:49.306Z,6.40
2023-01-10T01:31:18.111Z,6.40
2023-01-10T01:33:47.656Z,6.30
2023-01-10T01:36:20.171Z,6.30
2023-01-10T01:38:48.779Z,6.30
2023-01-10T01:41:36.129Z,6.20
2023-01-10T01:44:17.946Z,6.30
2023-01-10T01:46:50.334Z,6.30
2023-01-10T01:49:25.154Z,6.40
2023-01-10T01:51:58.369Z,6.40
2023-01-10T01:54:28.026Z,6.40
2023-01-10T01:57:02.190Z,6.40
2023-01-10T01:59:34.107Z,6.50
2023-01-10T02:02:07.463Z,6.40
2023-01-10T02:04:40.619Z,6.40
2023-01-10T02:07:09.564Z,6.50
2023-01-10T02:09:42.309Z,6.40
2023-01-10T02:12:14.191Z,6.50
2023-01-10T02:14:44.330Z,6.50
2023-01-10T02:17:13.300Z,6.60
2023-01-10T02:19:52.343Z,6.60
2023-01-10T02:23:01.638Z,6.60
2023-01-10T02:26:00.480Z,6.60
2023-01-10T02:29:00.185Z,6.70
2023-01-10T02:32:09.392Z,6.60
2023-01-10T02:34:46.729Z,6.70
2023-01-10T02:37:18.781Z,6.70
2023-01-10T02:40:04.482Z,6.70
2023-01-10T02:42:40.905Z,6.70
2023-01-10T02:45:16.012Z,6.70
2023-01-10T02:47:49.040Z,6.70
2023-01-10T02:50:32.361Z,6.70
2023-01-10T02:53:04.911Z,6.70
2023-01-10T02:55:43.693Z,6.60
2023-01-10T02:58:24.450Z,6.60
2023-01-10T03:00:58.742Z,6.40
2023-01-10T03:03:37.441Z,6.40
2023-01-10T03:06:19.902Z,6.30
2023-01-10T03:08:54.701Z,6.20
2023-01-10T03:11:40.429Z,6.10
2023-01-10T03:14:15.641Z,6.10
2023-01-10T03:16:54.181Z,6.00
2023-01-10T03:19:27.754Z,6.00
2023-01-10T03:21:59.387Z,5.90
2023-01-10T03:24:33.422Z,5.90
2023-01-10T03:27:08.502Z,5.80
2023-01-10T03:29:43.490Z,5.80
2023-01-10T03:32:15.123Z,5.70
2023-01-10T03:34:46.070Z,5.70
2023-01-10T03:37:17.684Z,5.70
2023-01-10T03:39:55.383Z,5.70
2023-01-10T03:42:29.667Z,5.80
2023-01-10T03:45:08.205Z,5.90
2023-01-10T03:47:42.300Z,5.90
2023-01-10T03:50:22.056Z,6.00
2023-01-10T03:52:50.481Z,6.10
2023-01-10T03:55:25.995Z,6.10
2023-01-10T03:57:54.468Z,6.20
2023-01-10T04:00:24.383Z,6.20
2023-01-10T04:02:52.934Z,6.30
2023-01-10T04:05:22.763Z,6.30
2023-01-10T04:07:51.228Z,6.40
2023-01-10T04:10:21.224Z,6.40
2023-01-10T04:13:08.307Z,6.40
2023-01-10T04:15:41.611Z,6.40
2023-01-10T04:18:10.070Z,6.40
2023-01-10T04:20:39.880Z,6.40
2023-01-10T04:23:08.331Z,6.50
2023-01-10T04:25:36.796Z,6.50
2023-01-10T04:28:05.386Z,6.50
2023-01-10T04:30:33.890Z,6.50
2023-01-10T04:33:02.323Z,6.50
2023-01-10T04:35:30.734Z,6.50
2023-01-10T04:38:09.375Z,6.60
2023-01-10T04:40:37.820Z,6.60
2023-01-10T04:43:06.230Z,6.60
2023-01-10T04:45:34.770Z,6.50
2023-01-10T04:48:03.222Z,6.50
2023-01-10T04:50:31.650Z,6.50
2023-01-10T04:53:00.105Z,6.50
2023-01-10T04:55:30.043Z,6.50
2023-01-10T04:57:58.501Z,6.40
2023-01-10T05:00:29.093Z,6.30
2023-01-10T05:02:57.961Z,6.30
2023-01-10T05:05:26.638Z,6.20
2023-01-10T05:07:55.191Z,6.10
2023-01-10T05:10:23.710Z,6.00
2023-01-10T05:12:53.603Z,6.00
2023-01-10T05:15:23.628Z,5.90
2023-01-10T05:17:54.438Z,5.90
2023-01-10T05:20:22.907Z,5.90
2023-01-10T05:22:51.331Z,5.80
2023-01-10T05:25:19.782Z,5.80
2023-01-10T05:27:48.255Z,5.80
2023-01-10T05:30:19.052Z,5.70
2023-01-10T05:32:47.519Z,5.70
2023-01-10T05:35:17.404Z,5.70
2023-01-10T05:37:45.970Z,5.80
2023-01-10T05:40:14.688Z,5.90
2023-01-10T05:42:43.518Z,5.80
2023-01-10T05:45:12.769Z,5.90
2023-01-10T05:47:42.599Z,5.90
2023-01-10T05:50:12.374Z,5.90
2023-01-10T05:52:40.949Z,5.90
2023-01-10T05:55:09.734Z,5.90
2023-01-10T05:57:38.201Z,5.90
2023-01-10T06:00:07.799Z,5.90
2023-01-10T06:02:36.391Z,5.80
2023-01-10T06:05:07.349Z,5.80
2023-01-10T06:07:35.783Z,5.80
2023-01-10T06:10:04.338Z,5.80
2023-01-10T06:12:32.783Z,5.70
2023-01-10T06:15:01.371Z,5.70
2023-01-10T06:17:30.049Z,5.70
2023-01-10T06:19:58.499Z,5.60
2023-01-10T06:22:29.573Z,5.60
2023-01-10T06:24:58.152Z,5.60
2023-01-10T06:27:35.511Z,5.50
2023-01-10T06:30:04.034Z,5.50
2023-01-10T06:32:32.479Z,5.50
2023-01-10T06:35:01.066Z,5.50
2023-01-10T06:37:30.941Z,5.50
2023-01-10T06:39:59.553Z,5.40
2023-01-10T06:42:28.109Z,5.40
2023-01-10T06:44:56.560Z,5.40
2023-01-10T06:47:25.482Z,5.40
2023-01-10T06:50:07.190Z,5.30
2023-01-10T06:52:37.424Z,5.30
2023-01-10T06:55:06.969Z,5.30
2023-01-10T06:57:35.737Z,5.30
2023-01-10T07:00:05.216Z,5.20
2023-01-10T07:02:33.968Z,5.20
2023-01-10T07:05:02.433Z,5.20
2023-01-10T07:07:30.959Z,5.30
2023-01-10T07:10:01.229Z,5.30
2023-01-10T07:12:30.673Z,5.40
2023-01-10T07:14:59.230Z,5.40
2023-01-10T07:17:27.731Z,5.50
2023-01-10T07:19:56.159Z,5.50
2023-01-10T07:22:24.895Z,5.50
2023-01-10T07:24:54.835Z,5.50
2023-01-10T07:27:24.718Z,5.50
2023-01-10T07:29:53.259Z,5.50
2023-01-10T07:32:21.719Z,5.50
2023-01-10T07:34:52.748Z,5.50
2023-01-10T07:37:21.150Z,5.50
2023-01-10T07:39:49.869Z,5.60
2023-01-10T07:42:18.259Z,5.60
2023-01-10T07:44:49.512Z,5.60
2023-01-10T07:47:18.289Z,5.60
2023-01-10T07:49:46.771Z,5.60
2023-01-10T07:52:15.309Z,5.60
2023-01-10T07:54:43.761Z,5.60
2023-01-10T07:57:12.124Z,5.60
2023-01-10T07:59:40.580Z,5.60
2023-01-10T08:02:11.839Z,5.70
2023-01-10T08:04:40.431Z,5.70
2023-01-10T08:07:08.882Z,5.70
2023-01-10T08:09:37.414Z,5.70
2023-01-10T08:12:06.024Z,5.70
2023-01-10T08:14:37.760Z,5.70
2023-01-10T08:17:06.340Z,5.70
2023-01-10T08:19:36.161Z,5.80
2023-01-10T08:22:04.661Z,5.80
2023-01-10T08:24:33.131Z,5.90
2023-01-10T08:27:02.041Z,5.90
2023-01-10T08:29:30.955Z,6.00
2023-01-10T08:31:59.493Z,6.10
2023-01-10T08:34:28.650Z,6.20
2023-01-10T08:37:04.552Z,6.30
2023-01-10T08:39:35.197Z,6.30
2023-01-10T08:42:03.653Z,6.40
2023-01-10T08:44:32.214Z,6.50
2023-01-10T08:47:00.627Z,6.50
2023-01-10T08:49:29.095Z,6.60
2023-01-10T08:51:57.901Z,6.60
2023-01-10T08:54:30.401Z,6.70
2023-01-10T08:56:58.892Z,6.70
2023-01-10T08:59:27.367Z,6.70
2023-01-10T09:01:58.519Z,6.70
2023-01-10T09:04:29.077Z,6.70
2023-01-10T09:06:58.161Z,6.60
2023-01-10T09:09:28.008Z,6.70
2023-01-10T09:11:57.666Z,6.80
2023-01-10T09:14:26.201Z,6.80
2023-01-10T09:16:54.689Z,6.90
2023-01-10T09:19:42.007Z,6.90
2023-01-10T09:22:29.360Z,7.00
2023-01-10T09:25:17.983Z,7.00
2023-01-10T09:28:06.107Z,7.10
2023-01-10T09:30:34.919Z,7.10
2023-01-10T09:33:03.793Z,7.10
2023-01-10T09:35:33.211Z,7.10
2023-01-10T09:38:03.303Z,7.20
2023-01-10T09:40:48.101Z,7.20
2023-01-10T09:43:23.444Z,7.20
2023-01-10T09:45:59.698Z,7.20
2023-01-10T09:48:53.614Z,7.20
2023-01-10T09:51:35.663Z,7.10
2023-01-10T09:54:12.237Z,7.00
2023-01-10T09:56:43.279Z,7.00
2023-01-10T09:59:18.389Z,7.10
2023-01-10T10:01:49.174Z,7.10
2023-01-10T10:04:24.640Z,7.20
2023-01-10T10:06:53.989Z,7.30
2023-01-10T10:09:28.192Z,7.30
2023-01-10T10:12:19.360Z,7.20
2023-01-10T10:15:00.218Z,7.20
2023-01-10T10:17:38.739Z,7.20
2023-01-10T10:20:24.771Z,7.40
2023-01-10T10:23:06.410Z,7.50
2023-01-10T10:25:52.941Z,7.60
2023-01-10T10:28:53.472Z,7.60
2023-01-10T10:31:33.373Z,7.60
2023-01-10T10:34:11.498Z,7.60
2023-01-10T10:36:45.243Z,7.70
2023-01-10T10:39:18.991Z,7.70
2023-01-10T10:41:52.629Z,7.70
2023-01-10T10:44:34.081Z,7.70
2023-01-10T10:47:02.942Z,7.60
2023-01-10T10:49:39.974Z,7.60
2023-01-10T10:52:18.858Z,7.60
2023-01-10T10:55:00.058Z,7.60
2023-01-10T10:57:31.110Z,7.60
2023-01-10T11:00:03.126Z,7.60
2023-01-10T11:02:34.161Z,7.60
2023-01-10T11:05:05.339Z,7.60
2023-01-10T11:07:38.100Z,7.60
2023-01-10T11:10:32.389Z,7.70
2023-01-10T11:13:03.352Z,7.70
2023-01-10T11:15:41.279Z,7.70
2023-01-10T11:18:14.552Z,7.80
2023-01-10T11:20:58.239Z,7.80
2023-01-10T11:23:33.077Z,7.90
2023-01-10T11:26:02.052Z,7.90
2023-01-10T11:28:32.762Z,8.00
2023-01-10T11:31:03.747Z,8.00
2023-01-10T11:33:36.003Z,8.00
2023-01-10T11:36:07.033Z,8.00
2023-01-10T11:38:35.908Z,8.10
2023-01-10T11:41:07.002Z,8.10
2023-01-10T11:43:37.238Z,8.20
2023-01-10T11:46:14.630Z,8.30
2023-01-10T11:49:06.785Z,8.30
2023-01-10T11:51:39.054Z,8.30
2023-01-10T11:54:12.871Z,8.40
2023-01-10T11:56:43.596Z,8.40
2023-01-10T11:59:15.619Z,8.40
2023-01-10T12:01:49.096Z,8.30
2023-01-10T12:04:18.839Z,8.30
2023-01-10T12:06:49.550Z,8.30
2023-01-10T12:09:42.820Z,8.30
2023-01-10T12:12:22.977Z,8.20
2023-01-10T12:14:52.945Z,8.20
2023-01-10T12:17:41.716Z,8.20
2023-01-10T12:20:15.637Z,8.20
2023-01-10T12:22:48.010Z,8.10
2023-01-10T12:25:21.935Z,8.10
2023-01-10T12:27:51.398Z,8.20
2023-01-10T12:30:27.392Z,8.20
2023-01-10T12:32:59.761Z,8.20
2023-01-10T12:35:39.770Z,8.20
2023-01-10T12:38:22.655Z,8.20
2023-01-10T12:40:55.137Z,8.10
2023-01-10T12:43:52.502Z,8.10
2023-01-10T12:46:53.047Z,8.10
2023-01-10T12:49:22.957Z,8.20
2023-01-10T12:51:54.485Z,8.30
2023-01-10T12:54:25.453Z,8.30
2023-01-10T12:56:55.456Z,8.40
2023-01-10T12:59:37.107Z,8.40
2023-01-10T13:02:15.700Z,8.40
2023-01-10T13:04:49.911Z,8.50
2023-01-10T13:07:19.727Z,8.50
2023-01-10T13:09:49.685Z,8.60
2023-01-10T13:12:23.398Z,8.70
2023-01-10T13:14:56.420Z,8.80
2023-01-10T13:17:35.329Z,8.80
2023-01-10T13:20:49.971Z,8.80
2023-01-10T13:23:30.490Z,8.70
2023-01-10T13:26:05.663Z,8.70
2023-01-10T13:28:36.061Z,8.60
2023-01-10T13:31:08.192Z,8.60
2023-01-10T13:33:52.128Z,8.60
2023-01-10T13:36:24.381Z,8.50
2023-01-10T13:38:57.413Z,8.60
2023-01-10T13:42:22.007Z,8.60
2023-01-10T13:45:17.662Z,8.70
2023-01-10T13:48:05.580Z,8.60
2023-01-10T13:51:12.876Z,8.60
2023-01-10T13:54:06.828Z,8.60
2023-01-10T13:56:37.847Z,8.60
2023-01-10T13:59:32.841Z,8.50
2023-01-10T14:02:21.972Z,8.40
2023-01-10T14:04:54.188Z,8.40
2023-01-10T14:07:29.665Z,8.30
2023-01-10T14:10:04.932Z,8.30
2023-01-10T14:12:37.601Z,8.20
2023-01-10T14:15:21.068Z,8.20
2023-01-10T14:17:58.064Z,8.20
2023-01-10T14:20:26.894Z,8.20
2023-01-10T14:23:08.882Z,8.10
2023-01-10T14:25:39.504Z,8.20
2023-01-10T14:28:21.511Z,8.20
2023-01-10T14:31:04.380Z,8.20
2023-01-10T14:33:35.580Z,8.20
2023-01-10T14:36:09.911Z,8.10
2023-01-10T14:38:39.747Z,8.00
2023-01-10T14:41:14.222Z,7.90
2023-01-10T14:43:46.948Z,7.90
2023-01-10T14:46:20.317Z,7.80
2023-01-10T14:48:52.087Z,7.80
2023-01-10T14:51:24.270Z,7.80
2023-01-10T14:54:01.587Z,7.70
2023-01-10T14:56:37.782Z,7.70
2023-01-10T14:59:21.932Z,7.60
2023-01-10T15:01:55.966Z,7.50
2023-01-10T15:04:29.107Z,7.40
2023-01-10T15:07:02.386Z,7.30
2023-01-10T15:09:33.133Z,7.30
2023-01-10T15:12:05.800Z,7.30
2023-01-10T15:14:36.380Z,7.30
2023-01-10T15:17:06.790Z,7.30
2023-01-10T15:19:39.793Z,7.20
2023-01-10T15:22:27.270Z,7.20
2023-01-10T15:25:01.264Z,7.20
2023-01-10T15:27:33.805Z,7.10
2023-01-10T15:30:03.264Z,7.00
2023-01-10T15:32:35.938Z,7.00
2023-01-10T15:35:09.130Z,6.90
2023-01-10T15:37:41.082Z,6.90
2023-01-10T15:40:23.228Z,6.90
2023-01-10T15:42:52.072Z,6.80
2023-01-10T15:45:33.822Z,6.80
2023-01-10T15:48:04.382Z,6.70
2023-01-10T15:50:38.922Z,6.70
2023-01-10T15:53:09.946Z,6.70
2023-01-10T15:55:45.627Z,6.70
2023-01-10T15:58:19.769Z,6.70
2023-01-10T16:00:49.749Z,6.70
2023-01-10T16:03:26.212Z,6.70
2023-01-10T16:06:23.349Z,6.70
2023-01-10T16:08:53.932Z,6.70
2023-01-10T16:11:44.125Z,6.60
2023-01-10T16:14:12.860Z,6.70
2023-01-10T16:16:42.110Z,6.70
2023-01-10T16:19:14.739Z,6.70
2023-01-10T16:21:53.130Z,6.60
2023-01-10T16:24:26.803Z,6.70
2023-01-10T16:27:14.442Z,6.70
2023-01-10T16:29:44.672Z,6.70
2023-01-10T16:32:16.799Z,6.70
2023-01-10T16:35:35.459Z,6.70
2023-01-10T16:38:05.516Z,6.70
2023-01-10T16:40:37.502Z,6.70
2023-01-10T16:43:21.888Z,6.70
2023-01-10T16:45:52.899Z,6.70
2023-01-10T16:48:39.881Z,6.70
2023-01-10T16:51:20.720Z,6.70
2023-01-10T16:53:51.037Z,6.70
2023-01-10T16:56:21.747Z,6.70
2023-01-10T16:58:51.345Z,6.70
2023-01-10T17:01:24.697Z,6.70
2023-01-10T17:03:54.452Z,6.70
2023-01-10T17:06:25.393Z,6.70
2023-01-10T17:09:02.128Z,6.70
2023-01-10T17:11:36.286Z,6.70
2023-01-10T17:14:05.981Z,6.70
2023-01-10T17:16:36.230Z,6.70
2023-01-10T17:19:05.591Z,6.70
2023-01-10T17:21:34.558Z,6.60
2023-01-10T17:24:09.581Z,6.60
2023-01-10T17:26:39.960Z,6.60
2023-01-10T17:29:10.478Z,6.70
2023-01-10T17:31:44.988Z,6.70
2023-01-10T17:34:19.267Z,6.70
2023-01-10T17:36:54.188Z,6.70
2023-01-10T17:39:27.121Z,6.70
2023-01-10T17:41:59.327Z,6.70
2023-01-10T17:44:30.278Z,6.70
2023-01-10T17:46:59.128Z,6.70
2023-01-10T17:49:47.308Z,6.70
2023-01-10T17:52:16.418Z,6.70
2023-01-10T17:54:48.787Z,6.70
2023-01-10T17:57:19.647Z,6.70
2023-01-10T17:59:48.792Z,6.70
2023-01-10T18:02:23.927Z,6.70
2023-01-10T18:04:52.718Z,6.70
2023-01-10T18:07:21.391Z,6.70
2023-01-10T18:09:54.980Z,6.70
2023-01-10T18:12:29.460Z,6.70
2023-01-10T18:14:58.322Z,6.70
2023-01-10T18:17:33.279Z,6.70
2023-01-10T18:20:02.291Z,6.70
2023-01-10T18:22:48.105Z,6.70
2023-01-10T18:25:19.570Z,6.70
2023-01-10T18:27:52.373Z,6.70
2023-01-10T18:30:22.434Z,6.70
2023-01-10T18:32:53.762Z,6.70
2023-01-10T18:35:24.373Z,6.70
2023-01-10T18:37:56.450Z,6.70
2023-01-10T18:40:27.100Z,6.70
2023-01-10T18:43:00.113Z,6.80
2023-01-10T18:45:31.861Z,6.80
2023-01-10T18:48:05.291Z,6.80
2023-01-10T18:50:34.130Z,6.90
2023-01-10T18:53:06.180Z,6.90
2023-01-10T18:55:36.441Z,6.90
2023-01-10T18:58:19.450Z,6.90
2023-01-10T19:00:51.676Z,6.90
2023-01-10T19:03:30.733Z,6.90
2023-01-10T19:06:03.309Z,7.00
2023-01-10T19:08:40.008Z,7.00
2023-01-10T19:11:17.114Z,7.00
2023-01-10T19:13:52.384Z,7.00
2023-01-10T19:16:27.947Z,7.10
2023-01-10T19:19:11.252Z,7.10
2023-01-10T19:21:47.621Z,7.10
2023-01-10T19:24:27.540Z,7.00
2023-01-10T19:27:03.823Z,7.00
2023-01-10T19:29:38.309Z,7.00
2023-01-10T19:32:08.595Z,7.00
2023-01-10T19:34:46.223Z,6.90
2023-01-10T19:37:15.898Z,6.90
2023-01-10T19:39:46.201Z,6.80
2023-01-10T19:42:28.901Z,6.80
2023-01-10T19:45:03.330Z,6.70
2023-01-10T19:47:36.766Z,6.70
2023-01-10T19:50:11.057Z,6.70
2023-01-10T19:52:50.976Z,6.60
2023-01-10T19:55:30.384Z,6.60
2023-01-10T19:58:02.152Z,6.50
2023-01-10T20:00:32.135Z,6.50
2023-01-10T20:03:01.511Z,6.60
2023-01-10T20:05:30.517Z,6.50
2023-01-10T20:07:59.054Z,6.40
2023-01-10T20:10:27.667Z,6.40
2023-01-10T20:12:56.164Z,6.40
2023-01-10T20:15:26.216Z,6.40
2023-01-10T20:17:55.095Z,6.40
2023-01-10T20:20:23.817Z,6.40
2023-01-10T20:22:57.558Z,6.40
2023-01-10T20:25:26.467Z,6.40
2023-01-10T20:27:55.420Z,6.30
2023-01-10T20:30:27.724Z,6.30
2023-01-10T20:32:57.174Z,6.30
2023-01-10T20:35:25.718Z,6.30
2023-01-10T20:37:54.324Z,6.30
2023-01-10T20:40:25.086Z,6.30
2023-01-10T20:42:53.876Z,6.20
2023-01-10T20:45:22.779Z,6.30
2023-01-10T20:47:54.023Z,6.30
2023-01-10T20:50:22.721Z,6.30
2023-01-10T20:52:51.538Z,6.30
2023-01-10T20:55:21.739Z,6.20
2023-01-10T20:57:51.692Z,6.20
2023-01-10T21:00:21.141Z,6.30
2023-01-10T21:02:49.590Z,6.20
2023-01-10T21:05:19.582Z,6.30
2023-01-10T21:07:48.457Z,6.30
2023-01-10T21:10:30.329Z,6.20
2023-01-10T21:12:59.771Z,6.20
2023-01-10T21:15:28.290Z,6.20
2023-01-10T21:18:06.000Z,6.20
2023-01-10T21:20:35.993Z,6.20
2023-01-10T21:23:04.410Z,6.20
2023-01-10T21:25:32.985Z,6.20
2023-01-10T21:28:01.425Z,6.20
2023-01-10T21:30:29.912Z,6.20
2023-01-10T21:33:01.441Z,6.20
2023-01-10T21:35:29.834Z,6.20
2023-01-10T21:37:59.762Z,6.20
2023-01-10T21:40:36.360Z,6.20
2023-01-10T21:43:05.293Z,6.20
2023-01-10T21:45:35.919Z,6.20
2023-01-10T21:48:04.501Z,6.20
2023-01-10T21:50:33.895Z,6.20
2023-01-10T21:53:04.035Z,6.20
2023-01-10T21:55:33.004Z,6.20
2023-01-10T21:58:01.423Z,6.20
2023-01-10T22:00:30.008Z,6.20
2023-01-10T22:03:07.507Z,6.20
2023-01-10T22:05:36.022Z,6.20
2023-01-10T22:08:06.317Z,6.20
2023-01-10T22:10:34.790Z,6.20
2023-01-10T22:13:03.292Z,6.20
2023-01-10T22:15:32.055Z,6.20
2023-01-10T22:18:01.410Z,6.20
2023-01-10T22:20:29.859Z,6.20
2023-01-10T22:22:58.920Z,6.20
2023-01-10T22:25:33.641Z,6.20
2023-01-10T22:28:02.075Z,6.20
2023-01-10T22:30:30.520Z,6.20
2023-01-10T22:32:59.221Z,6.20
2023-01-10T22:35:27.668Z,6.20
2023-01-10T22:37:56.957Z,6.20
2023-01-10T22:40:25.659Z,6.20
2023-01-10T22:42:55.474Z,6.20
2023-01-10T22:45:23.978Z,6.20
2023-01-10T22:47:53.575Z,6.20
2023-01-10T22:50:21.969Z,6.30
2023-01-10T22:52:50.648Z,6.30
2023-01-10T22:55:19.684Z,6.20
2023-01-10T22:57:48.173Z,6.20
2023-01-10T23:00:19.672Z,6.20
2023-01-10T23:02:48.255Z,6.20
2023-01-10T23:05:16.745Z,6.20
2023-01-10T23:07:45.301Z,6.30
2023-01-10T23:10:29.223Z,6.30
2023-01-10T23:12:58.151Z,6.30
2023-01-10T23:15:28.063Z,6.30
2023-01-10T23:17:56.535Z,6.30
2023-01-10T23:20:25.032Z,6.30
2023-01-10T23:22:53.495Z,6.30
2023-01-10T23:25:22.022Z,6.30
2023-01-10T23:27:50.588Z,6.30
2023-01-10T23:30:26.717Z,6.40
2023-01-10T23:32:56.658Z,6.40
2023-01-10T23:35:25.127Z,6.40
2023-01-10T23:37:54.305Z,6.40
2023-01-10T23:40:22.884Z,6.40
2023-01-10T23:42:51.397Z,6.40
2023-01-10T23:45:19.897Z,6.40
2023-01-10T23:47:48.487Z,6.50
2023-01-10T23:50:20.239Z,6.50
2023-01-10T23:53:07.193Z,6.50
2023-01-10T23:55:35.775Z,6.50
2023-01-10T23:58:04.248Z,6.50
